sensor_id;sensor_type;location;lat;lon;timestamp;temperature;humidity
66594;DHT22;53450;42.584;23.366;2024-03-08T00:00:53;3.31;88.42
66594;DHT22;53450;42.584;23.366;2024-03-08T00:03:45;3.26;88.61
66594;DHT22;53450;42.584;23.366;2024-03-08T00:06:26;3.13;88.82
66594;DHT22;53450;42.584;23.366;2024-03-08T00:08:57;3.19;88.92
66594;DHT22;53450;42.584;23.366;2024-03-08T00:11:28;3.12;89.14
66594;DHT22;53450;42.584;23.366;2024-03-08T00:14:42;3.03;89.46
66594;DHT22;53450;42.584;23.366;2024-03-08T00:17:21;3.05;89.62
66594;DHT22;53450;42.584;23.366;2024-03-08T00:19:49;3.06;89.62
66594;DHT22;53450;42.584;23.366;2024-03-08T00:22:26;3.12;89.57
66594;DHT22;53450;42.584;23.366;2024-03-08T00:25:06;3.06;89.59
66594;DHT22;53450;42.584;23.366;2024-03-08T00:27:34;3.10;89.76
66594;DHT22;53450;42.584;23.366;2024-03-08T00:30:09;3.10;89.90
66594;DHT22;53450;42.584;23.366;2024-03-08T00:32:51;3.07;89.90
66594;DHT22;53450;42.584;23.366;2024-03-08T00:35:43;3.10;89.91
66594;DHT22;53450;42.584;23.366;2024-03-08T00:38:25;3.15;89.95
66594;DHT22;53450;42.584;23.366;2024-03-08T00:41:14;3.13;89.94
66594;DHT22;53450;42.584;23.366;2024-03-08T00:44:05;3.44;89.78
66594;DHT22;53450;42.584;23.366;2024-03-08T00:46:33;3.51;89.39
66594;DHT22;53450;42.584;23.366;2024-03-08T00:49:09;3.47;89.09
66594;DHT22;53450;42.584;23.366;2024-03-08T00:51:45;3.57;88.13
66594;DHT22;53450;42.584;23.366;2024-03-08T00:54:16;3.58;87.49
66594;DHT22;53450;42.584;23.366;2024-03-08T00:56:49;3.53;87.75
66594;DHT22;53450;42.584;23.366;2024-03-08T00:59:25;3.58;87.70
66594;DHT22;53450;42.584;23.366;2024-03-08T01:01:54;3.53;87.79
66594;DHT22;53450;42.584;23.366;2024-03-08T01:04:23;3.31;88.21
66594;DHT22;53450;42.584;23.366;2024-03-08T01:06:51;3.24;88.65
66594;DHT22;53450;42.584;23.366;2024-03-08T01:09:27;3.22;88.74
66594;DHT22;53450;42.584;23.366;2024-03-08T01:12:06;3.23;89.00
66594;DHT22;53450;42.584;23.366;2024-03-08T01:14:32;3.26;89.04
66594;DHT22;53450;42.584;23.366;2024-03-08T01:17:21;3.27;89.05
66594;DHT22;53450;42.584;23.366;2024-03-08T01:19:50;3.24;89.06
66594;DHT22;53450;42.584;23.366;2024-03-08T01:22:23;3.38;88.96
66594;DHT22;53450;42.584;23.366;2024-03-08T01:24:52;3.44;88.88
66594;DHT22;53450;42.584;23.366;2024-03-08T01:27:17;3.31;88.88
66594;DHT22;53450;42.584;23.366;2024-03-08T01:29:45;3.23;89.20
66594;DHT22;53450;42.584;23.366;2024-03-08T01:32:16;3.17;89.45
66594;DHT22;53450;42.584;23.366;2024-03-08T01:34:42;3.12;89.55
66594;DHT22;53450;42.584;23.366;2024-03-08T01:37:09;3.09;89.83
66594;DHT22;53450;42.584;23.366;2024-03-08T01:39:35;3.05;90.11
66594;DHT22;53450;42.584;23.366;2024-03-08T01:42:01;3.02;90.33
66594;DHT22;53450;42.584;23.366;2024-03-08T01:44:26;3.00;90.41
66594;DHT22;53450;42.584;23.366;2024-03-08T01:46:55;2.95;90.40
66594;DHT22;53450;42.584;23.366;2024-03-08T01:49:21;3.03;90.49
66594;DHT22;53450;42.584;23.366;2024-03-08T01:51:50;3.23;90.64
66594;DHT22;53450;42.584;23.366;2024-03-08T01:54:19;3.23;90.57
66594;DHT22;53450;42.584;23.366;2024-03-08T01:56:46;3.05;90.64
66594;DHT22;53450;42.584;23.366;2024-03-08T01:59:16;2.97;90.82
66594;DHT22;53450;42.584;23.366;2024-03-08T02:01:43;2.95;91.02
66594;DHT22;53450;42.584;23.366;2024-03-08T02:04:08;2.95;91.23
66594;DHT22;53450;42.584;23.366;2024-03-08T02:06:34;2.93;91.28
66594;DHT22;53450;42.584;23.366;2024-03-08T02:09:00;2.95;91.32
66594;DHT22;53450;42.584;23.366;2024-03-08T02:11:26;2.85;91.33
66594;DHT22;53450;42.584;23.366;2024-03-08T02:13:52;2.82;91.48
66594;DHT22;53450;42.584;23.366;2024-03-08T02:16:22;2.74;91.57
66594;DHT22;53450;42.584;23.366;2024-03-08T02:18:48;2.68;91.68
66594;DHT22;53450;42.584;23.366;2024-03-08T02:21:16;2.66;91.84
66594;DHT22;53450;42.584;23.366;2024-03-08T02:23:46;2.81;91.89
66594;DHT22;53450;42.584;23.366;2024-03-08T02:26:12;2.82;91.96
66594;DHT22;53450;42.584;23.366;2024-03-08T02:28:38;2.78;91.97
66594;DHT22;53450;42.584;23.366;2024-03-08T02:31:04;2.81;91.98
66594;DHT22;53450;42.584;23.366;2024-03-08T02:33:38;2.76;92.00
66594;DHT22;53450;42.584;23.366;2024-03-08T02:36:04;2.72;91.93
66594;DHT22;53450;42.584;23.366;2024-03-08T02:38:32;2.68;91.98
66594;DHT22;53450;42.584;23.366;2024-03-08T02:40:58;2.82;91.94
66594;DHT22;53450;42.584;23.366;2024-03-08T02:43:24;2.74;91.89
66594;DHT22;53450;42.584;23.366;2024-03-08T02:45:50;2.75;91.83
66594;DHT22;53450;42.584;23.366;2024-03-08T02:48:16;2.78;91.75
66594;DHT22;53450;42.584;23.366;2024-03-08T02:50:44;2.82;91.69
66594;DHT22;53450;42.584;23.366;2024-03-08T02:53:11;2.91;91.64
66594;DHT22;53450;42.584;23.366;2024-03-08T02:55:40;2.78;91.47
66594;DHT22;53450;42.584;23.366;2024-03-08T02:58:06;2.66;91.37
66594;DHT22;53450;42.584;23.366;2024-03-08T03:00:38;2.64;91.30
66594;DHT22;53450;42.584;23.366;2024-03-08T03:03:04;2.64;91.27
66594;DHT22;53450;42.584;23.366;2024-03-08T03:05:30;2.55;91.25
66594;DHT22;53450;42.584;23.366;2024-03-08T03:07:56;2.52;91.31
66594;DHT22;53450;42.584;23.366;2024-03-08T03:10:23;2.52;91.32
66594;DHT22;53450;42.584;23.366;2024-03-08T03:12:49;2.54;91.32
66594;DHT22;53450;42.584;23.366;2024-03-08T03:15:15;2.47;91.32
66594;DHT22;53450;42.584;23.366;2024-03-08T03:17:49;2.54;91.32
66594;DHT22;53450;42.584;23.366;2024-03-08T03:20:17;2.55;91.32
66594;DHT22;53450;42.584;23.366;2024-03-08T03:22:49;2.52;91.23
66594;DHT22;53450;42.584;23.366;2024-03-08T03:25:21;2.42;91.11
66594;DHT22;53450;42.584;23.366;2024-03-08T03:27:54;2.52;91.01
66594;DHT22;53450;42.584;23.366;2024-03-08T03:30:23;2.52;90.88
66594;DHT22;53450;42.584;23.366;2024-03-08T03:32:52;2.59;90.75
66594;DHT22;53450;42.584;23.366;2024-03-08T03:35:18;2.61;90.57
66594;DHT22;53450;42.584;23.366;2024-03-08T03:37:46;2.64;90.31
66594;DHT22;53450;42.584;23.366;2024-03-08T03:40:30;2.75;89.90
66594;DHT22;53450;42.584;23.366;2024-03-08T03:42:57;2.84;89.62
66594;DHT22;53450;42.584;23.366;2024-03-08T03:45:26;3.00;89.15
66594;DHT22;53450;42.584;23.366;2024-03-08T03:47:51;3.05;88.45
66594;DHT22;53450;42.584;23.366;2024-03-08T03:50:18;2.86;88.77
66594;DHT22;53450;42.584;23.366;2024-03-08T03:52:50;2.76;89.07
66594;DHT22;53450;42.584;23.366;2024-03-08T03:55:18;2.75;89.22
66594;DHT22;53450;42.584;23.366;2024-03-08T03:57:47;2.71;89.28
66594;DHT22;53450;42.584;23.366;2024-03-08T04:00:13;2.68;89.33
66594;DHT22;53450;42.584;23.366;2024-03-08T04:02:42;2.66;89.46
66594;DHT22;53450;42.584;23.366;2024-03-08T04:05:10;2.69;89.23
66594;DHT22;53450;42.584;23.366;2024-03-08T04:07:41;2.71;88.61
66594;DHT22;53450;42.584;23.366;2024-03-08T04:10:11;2.68;88.46
66594;DHT22;53450;42.584;23.366;2024-03-08T04:12:45;2.65;88.48
66594;DHT22;53450;42.584;23.366;2024-03-08T04:15:22;2.69;88.63
66594;DHT22;53450;42.584;23.366;2024-03-08T04:17:55;2.62;88.58
66594;DHT22;53450;42.584;23.366;2024-03-08T04:20:25;2.68;88.48
66594;DHT22;53450;42.584;23.366;2024-03-08T04:22:52;2.68;88.34
66594;DHT22;53450;42.584;23.366;2024-03-08T04:25:38;2.61;88.46
66594;DHT22;53450;42.584;23.366;2024-03-08T04:28:07;2.72;88.44
66594;DHT22;53450;42.584;23.366;2024-03-08T04:30:41;2.91;88.38
66594;DHT22;53450;42.584;23.366;2024-03-08T04:33:13;2.89;88.08
66594;DHT22;53450;42.584;23.366;2024-03-08T04:35:47;2.72;87.96
66594;DHT22;53450;42.584;23.366;2024-03-08T04:38:18;2.76;88.06
66594;DHT22;53450;42.584;23.366;2024-03-08T04:40:47;2.71;87.12
66594;DHT22;53450;42.584;23.366;2024-03-08T04:43:25;2.71;87.08
66594;DHT22;53450;42.584;23.366;2024-03-08T04:45:52;2.69;86.93
66594;DHT22;53450;42.584;23.366;2024-03-08T04:48:24;2.69;86.79
66594;DHT22;53450;42.584;23.366;2024-03-08T04:50:55;2.65;86.70
66594;DHT22;53450;42.584;23.366;2024-03-08T04:53:23;2.66;86.66
66594;DHT22;53450;42.584;23.366;2024-03-08T04:55:49;2.42;86.45
66594;DHT22;53450;42.584;23.366;2024-03-08T04:58:23;2.31;87.11
66594;DHT22;53450;42.584;23.366;2024-03-08T05:01:07;2.27;87.42
66594;DHT22;53450;42.584;23.366;2024-03-08T05:03:44;2.23;87.82
66594;DHT22;53450;42.584;23.366;2024-03-08T05:06:09;2.26;87.84
66594;DHT22;53450;42.584;23.366;2024-03-08T05:08:37;2.18;88.17
66594;DHT22;53450;42.584;23.366;2024-03-08T05:11:05;2.20;88.55
66594;DHT22;53450;42.584;23.366;2024-03-08T05:13:34;2.17;88.73
66594;DHT22;53450;42.584;23.366;2024-03-08T05:16:00;2.03;88.81
66594;DHT22;53450;42.584;23.366;2024-03-08T05:18:26;2.11;88.85
66594;DHT22;53450;42.584;23.366;2024-03-08T05:20:54;2.10;88.82
66594;DHT22;53450;42.584;23.366;2024-03-08T05:23:19;1.96;88.65
66594;DHT22;53450;42.584;23.366;2024-03-08T05:25:56;2.17;88.76
66594;DHT22;53450;42.584;23.366;2024-03-08T05:28:27;2.24;88.71
66594;DHT22;53450;42.584;23.366;2024-03-08T05:30:53;2.24;88.20
66594;DHT22;53450;42.584;23.366;2024-03-08T05:33:24;2.26;88.09
66594;DHT22;53450;42.584;23.366;2024-03-08T05:35:53;2.11;88.06
66594;DHT22;53450;42.584;23.366;2024-03-08T05:38:20;2.26;88.16
66594;DHT22;53450;42.584;23.366;2024-03-08T05:40:49;2.38;88.07
66594;DHT22;53450;42.584;23.366;2024-03-08T05:43:16;2.42;87.87
66594;DHT22;53450;42.584;23.366;2024-03-08T05:46:07;2.57;87.50
66594;DHT22;53450;42.584;23.366;2024-03-08T05:48:49;2.26;87.18
66594;DHT22;53450;42.584;23.366;2024-03-08T05:51:27;2.34;87.51
66594;DHT22;53450;42.584;23.366;2024-03-08T05:53:58;2.47;87.45
66594;DHT22;53450;42.584;23.366;2024-03-08T05:56:26;2.42;87.23
66594;DHT22;53450;42.584;23.366;2024-03-08T05:58:54;2.26;87.24
66594;DHT22;53450;42.584;23.366;2024-03-08T06:01:20;2.20;87.46
66594;DHT22;53450;42.584;23.366;2024-03-08T06:04:02;2.34;87.66
66594;DHT22;53450;42.584;23.366;2024-03-08T06:06:29;2.41;87.59
66594;DHT22;53450;42.584;23.366;2024-03-08T06:09:08;2.33;87.18
66594;DHT22;53450;42.584;23.366;2024-03-08T06:11:40;2.34;87.41
66594;DHT22;53450;42.584;23.366;2024-03-08T06:14:25;2.24;87.71
66594;DHT22;53450;42.584;23.366;2024-03-08T06:16:51;2.30;88.07
66594;DHT22;53450;42.584;23.366;2024-03-08T06:19:35;2.30;87.56
66594;DHT22;53450;42.584;23.366;2024-03-08T06:22:03;2.35;87.50
66594;DHT22;53450;42.584;23.366;2024-03-08T06:24:38;2.31;87.50
66594;DHT22;53450;42.584;23.366;2024-03-08T06:27:13;2.26;88.39
66594;DHT22;53450;42.584;23.366;2024-03-08T06:29:39;2.24;88.84
66594;DHT22;53450;42.584;23.366;2024-03-08T06:32:05;2.28;89.03
66594;DHT22;53450;42.584;23.366;2024-03-08T06:34:41;2.30;89.25
66594;DHT22;53450;42.584;23.366;2024-03-08T06:37:34;2.28;89.20
66594;DHT22;53450;42.584;23.366;2024-03-08T06:40:03;2.18;89.27
66594;DHT22;53450;42.584;23.366;2024-03-08T06:42:29;2.24;89.04
66594;DHT22;53450;42.584;23.366;2024-03-08T06:44:59;2.06;88.95
66594;DHT22;53450;42.584;23.366;2024-03-08T06:47:40;2.00;89.03
66594;DHT22;53450;42.584;23.366;2024-03-08T06:50:07;2.09;89.13
66594;DHT22;53450;42.584;23.366;2024-03-08T06:52:43;2.09;89.28
66594;DHT22;53450;42.584;23.366;2024-03-08T06:55:13;2.06;89.13
66594;DHT22;53450;42.584;23.366;2024-03-08T06:57:47;2.10;89.13
66594;DHT22;53450;42.584;23.366;2024-03-08T07:00:18;2.00;89.07
66594;DHT22;53450;42.584;23.366;2024-03-08T07:02:54;2.02;88.98
66594;DHT22;53450;42.584;23.366;2024-03-08T07:05:56;2.06;89.13
66594;DHT22;53450;42.584;23.366;2024-03-08T07:08:42;1.97;89.24
66594;DHT22;53450;42.584;23.366;2024-03-08T07:11:19;2.09;89.42
66594;DHT22;53450;42.584;23.366;2024-03-08T07:13:49;2.16;89.37
66594;DHT22;53450;42.584;23.366;2024-03-08T07:16:34;2.13;89.40
66594;DHT22;53450;42.584;23.366;2024-03-08T07:19:05;2.27;89.30
66594;DHT22;53450;42.584;23.366;2024-03-08T07:21:36;2.38;89.03
66594;DHT22;53450;42.584;23.366;2024-03-08T07:24:19;2.44;88.45
66594;DHT22;53450;42.584;23.366;2024-03-08T07:27:17;2.66;88.17
66594;DHT22;53450;42.584;23.366;2024-03-08T07:29:45;2.74;87.58
66594;DHT22;53450;42.584;23.366;2024-03-08T07:32:22;2.68;87.25
66594;DHT22;53450;42.584;23.366;2024-03-08T07:34:56;2.69;86.77
66594;DHT22;53450;42.584;23.366;2024-03-08T07:37:31;2.85;86.26
66594;DHT22;53450;42.584;23.366;2024-03-08T07:39:57;3.09;85.91
66594;DHT22;53450;42.584;23.366;2024-03-08T07:42:26;3.19;85.22
66594;DHT22;53450;42.584;23.366;2024-03-08T07:45:04;2.89;85.18
66594;DHT22;53450;42.584;23.366;2024-03-08T07:47:35;2.85;85.83
66594;DHT22;53450;42.584;23.366;2024-03-08T07:50:05;2.84;86.96
66594;DHT22;53450;42.584;23.366;2024-03-08T07:52:37;2.68;86.52
66594;DHT22;53450;42.584;23.366;2024-03-08T07:55:08;2.54;87.05
66594;DHT22;53450;42.584;23.366;2024-03-08T07:57:36;2.57;86.80
66594;DHT22;53450;42.584;23.366;2024-03-08T08:00:05;2.64;86.94
66594;DHT22;53450;42.584;23.366;2024-03-08T08:02:34;2.48;86.43
66594;DHT22;53450;42.584;23.366;2024-03-08T08:05:03;2.51;86.75
66594;DHT22;53450;42.584;23.366;2024-03-08T08:07:37;2.62;86.90
66594;DHT22;53450;42.584;23.366;2024-03-08T08:10:03;3.03;87.03
66594;DHT22;53450;42.584;23.366;2024-03-08T08:12:34;2.96;86.45
66594;DHT22;53450;42.584;23.366;2024-03-08T08:15:00;2.82;86.51
66594;DHT22;53450;42.584;23.366;2024-03-08T08:17:37;2.93;87.03
66594;DHT22;53450;42.584;23.366;2024-03-08T08:20:06;3.00;86.84
66594;DHT22;53450;42.584;23.366;2024-03-08T08:22:37;2.97;86.75
66594;DHT22;53450;42.584;23.366;2024-03-08T08:25:11;2.99;86.02
66594;DHT22;53450;42.584;23.366;2024-03-08T08:32:16;3.06;85.29
66594;DHT22;53450;42.584;23.366;2024-03-08T08:34:50;3.30;84.40
66594;DHT22;53450;42.584;23.366;2024-03-08T08:37:54;3.43;84.35
66594;DHT22;53450;42.584;23.366;2024-03-08T08:40:24;3.33;84.10
66594;DHT22;53450;42.584;23.366;2024-03-08T08:42:54;3.33;84.90
66594;DHT22;53450;42.584;23.366;2024-03-08T08:45:24;3.36;85.13
66594;DHT22;53450;42.584;23.366;2024-03-08T08:47:53;3.74;84.43
66594;DHT22;53450;42.584;23.366;2024-03-08T08:50:20;3.65;83.62
66594;DHT22;53450;42.584;23.366;2024-03-08T08:52:53;3.71;83.41
66594;DHT22;53450;42.584;23.366;2024-03-08T08:55:59;3.73;83.44
66594;DHT22;53450;42.584;23.366;2024-03-08T09:01:53;4.06;81.68
66594;DHT22;53450;42.584;23.366;2024-03-08T09:04:33;4.05;82.58
66594;DHT22;53450;42.584;23.366;2024-03-08T09:07:09;4.12;81.51
66594;DHT22;53450;42.584;23.366;2024-03-08T09:09:46;4.06;81.22
66594;DHT22;53450;42.584;23.366;2024-03-08T09:12:23;4.20;81.39
66594;DHT22;53450;42.584;23.366;2024-03-08T09:14:57;4.42;82.09
66594;DHT22;53450;42.584;23.366;2024-03-08T09:18:25;4.92;80.53
66594;DHT22;53450;42.584;23.366;2024-03-08T09:20:57;4.99;79.21
66594;DHT22;53450;42.584;23.366;2024-03-08T09:24:18;5.32;78.72
66594;DHT22;53450;42.584;23.366;2024-03-08T09:26:52;4.87;79.02
66594;DHT22;53450;42.584;23.366;2024-03-08T09:29:17;4.92;80.22
66594;DHT22;53450;42.584;23.366;2024-03-08T09:31:46;4.96;79.22
66594;DHT22;53450;42.584;23.366;2024-03-08T09:34:32;5.22;79.06
66594;DHT22;53450;42.584;23.366;2024-03-08T09:37:02;5.12;79.07
66594;DHT22;53450;42.584;23.366;2024-03-08T09:39:32;4.83;79.11
66594;DHT22;53450;42.584;23.366;2024-03-08T09:42:08;4.91;78.14
66594;DHT22;53450;42.584;23.366;2024-03-08T09:44:39;4.80;77.47
66594;DHT22;53450;42.584;23.366;2024-03-08T09:47:13;4.54;78.57
66594;DHT22;53450;42.584;23.366;2024-03-08T09:49:42;4.47;77.92
66594;DHT22;53450;42.584;23.366;2024-03-08T09:52:08;4.54;79.03
66594;DHT22;53450;42.584;23.366;2024-03-08T09:54:38;4.75;77.57
66594;DHT22;53450;42.584;23.366;2024-03-08T09:57:07;5.11;74.98
66594;DHT22;53450;42.584;23.366;2024-03-08T09:59:34;5.33;75.28
66594;DHT22;53450;42.584;23.366;2024-03-08T10:02:22;5.64;75.41
66594;DHT22;53450;42.584;23.366;2024-03-08T10:04:48;5.52;74.27
66594;DHT22;53450;42.584;23.366;2024-03-08T10:07:14;5.66;74.95
66594;DHT22;53450;42.584;23.366;2024-03-08T10:09:42;5.46;73.92
66594;DHT22;53450;42.584;23.366;2024-03-08T10:12:16;5.33;73.71
66594;DHT22;53450;42.584;23.366;2024-03-08T10:14:44;5.35;74.71
66594;DHT22;53450;42.584;23.366;2024-03-08T10:17:10;5.32;73.47
66594;DHT22;53450;42.584;23.366;2024-03-08T10:19:39;5.44;72.31
66594;DHT22;53450;42.584;23.366;2024-03-08T10:22:16;5.60;71.24
66594;DHT22;53450;42.584;23.366;2024-03-08T10:24:45;5.56;72.39
66594;DHT22;53450;42.584;23.366;2024-03-08T10:27:11;5.73;69.42
66594;DHT22;53450;42.584;23.366;2024-03-08T10:29:36;6.04;70.58
66594;DHT22;53450;42.584;23.366;2024-03-08T10:32:05;5.98;71.43
66594;DHT22;53450;42.584;23.366;2024-03-08T10:34:32;5.90;70.75
66594;DHT22;53450;42.584;23.366;2024-03-08T10:37:03;5.80;71.04
66594;DHT22;53450;42.584;23.366;2024-03-08T10:39:35;5.80;70.18
66594;DHT22;53450;42.584;23.366;2024-03-08T10:42:03;6.05;71.78
66594;DHT22;53450;42.584;23.366;2024-03-08T10:47:40;6.05;72.32
66594;DHT22;53450;42.584;23.366;2024-03-08T10:50:46;5.77;72.01
66594;DHT22;53450;42.584;23.366;2024-03-08T10:53:31;5.64;72.90
66594;DHT22;53450;42.584;23.366;2024-03-08T10:56:26;6.20;72.39
66594;DHT22;53450;42.584;23.366;2024-03-08T10:59:08;6.36;71.47
66594;DHT22;53450;42.584;23.366;2024-03-08T11:01:46;6.20;70.62
66594;DHT22;53450;42.584;23.366;2024-03-08T11:04:12;5.57;72.28
66594;DHT22;53450;42.584;23.366;2024-03-08T11:06:50;5.77;73.87
66594;DHT22;53450;42.584;23.366;2024-03-08T11:09:48;5.86;73.12
66594;DHT22;53450;42.584;23.366;2024-03-08T11:12:22;5.70;71.51
66594;DHT22;53450;42.584;23.366;2024-03-08T11:15:12;5.50;69.95
66594;DHT22;53450;42.584;23.366;2024-03-08T11:17:45;5.74;71.78
66594;DHT22;53450;42.584;23.366;2024-03-08T11:20:26;6.14;70.39
66594;DHT22;53450;42.584;23.366;2024-03-08T11:23:06;6.43;69.52
66594;DHT22;53450;42.584;23.366;2024-03-08T11:25:47;6.48;70.15
66594;DHT22;53450;42.584;23.366;2024-03-08T11:28:54;6.69;69.18
66594;DHT22;53450;42.584;23.366;2024-03-08T11:31:29;6.59;69.76
66594;DHT22;53450;42.584;23.366;2024-03-08T11:34:03;6.29;69.69
66594;DHT22;53450;42.584;23.366;2024-03-08T11:36:42;6.60;69.56
66594;DHT22;53450;42.584;23.366;2024-03-08T11:42:48;6.11;70.36
66594;DHT22;53450;42.584;23.366;2024-03-08T11:45:18;6.20;69.53
66594;DHT22;53450;42.584;23.366;2024-03-08T11:47:48;6.32;69.91
66594;DHT22;53450;42.584;23.366;2024-03-08T11:50:20;6.63;67.83
66594;DHT22;53450;42.584;23.366;2024-03-08T11:52:49;6.73;66.67
66594;DHT22;53450;42.584;23.366;2024-03-08T11:55:16;6.80;66.00
66594;DHT22;53450;42.584;23.366;2024-03-08T11:57:58;6.84;67.48
66594;DHT22;53450;42.584;23.366;2024-03-08T12:00:28;6.70;67.26
66594;DHT22;53450;42.584;23.366;2024-03-08T12:03:22;6.65;66.83
66594;DHT22;53450;42.584;23.366;2024-03-08T12:06:17;6.41;67.67
66594;DHT22;53450;42.584;23.366;2024-03-08T12:09:24;6.24;67.29
66594;DHT22;53450;42.584;23.366;2024-03-08T12:16:32;6.22;67.27
66594;DHT22;53450;42.584;23.366;2024-03-08T12:25:05;6.45;65.48
66594;DHT22;53450;42.584;23.366;2024-03-08T12:28:11;6.41;68.26
66594;DHT22;53450;42.584;23.366;2024-03-08T12:31:00;6.48;67.98
66594;DHT22;53450;42.584;23.366;2024-03-08T12:34:17;6.24;68.63
66594;DHT22;53450;42.584;23.366;2024-03-08T12:37:23;6.14;67.64
66594;DHT22;53450;42.584;23.366;2024-03-08T12:40:21;6.12;67.92
66594;DHT22;53450;42.584;23.366;2024-03-08T12:42:51;6.26;67.82
66594;DHT22;53450;42.584;23.366;2024-03-08T12:45:16;6.46;66.80
66594;DHT22;53450;42.584;23.366;2024-03-08T12:47:51;6.65;66.18
66594;DHT22;53450;42.584;23.366;2024-03-08T12:50:40;6.54;66.13
66594;DHT22;53450;42.584;23.366;2024-03-08T12:53:17;6.63;66.04
66594;DHT22;53450;42.584;23.366;2024-03-08T12:56:01;6.76;65.87
66594;DHT22;53450;42.584;23.366;2024-03-08T12:58:29;6.81;65.39
66594;DHT22;53450;42.584;23.366;2024-03-08T13:01:21;6.93;65.91
66594;DHT22;53450;42.584;23.366;2024-03-08T13:03:55;7.01;65.32
66594;DHT22;53450;42.584;23.366;2024-03-08T13:06:21;6.94;64.20
66594;DHT22;53450;42.584;23.366;2024-03-08T13:08:55;6.81;65.45
66594;DHT22;53450;42.584;23.366;2024-03-08T13:11:24;6.87;66.01
66594;DHT22;53450;42.584;23.366;2024-03-08T13:13:56;6.94;65.69
66594;DHT22;53450;42.584;23.366;2024-03-08T13:16:27;6.83;64.79
66594;DHT22;53450;42.584;23.366;2024-03-08T13:18:55;6.87;64.84
66594;DHT22;53450;42.584;23.366;2024-03-08T13:21:43;6.89;65.56
66594;DHT22;53450;42.584;23.366;2024-03-08T13:24:24;6.91;64.90
66594;DHT22;53450;42.584;23.366;2024-03-08T13:26:53;6.97;67.48
66594;DHT22;53450;42.584;23.366;2024-03-08T13:29:22;7.10;65.58
66594;DHT22;53450;42.584;23.366;2024-03-08T13:31:53;6.76;65.90
66594;DHT22;53450;42.584;23.366;2024-03-08T13:34:24;6.73;65.40
66594;DHT22;53450;42.584;23.366;2024-03-08T13:37:04;6.65;66.98
66594;DHT22;53450;42.584;23.366;2024-03-08T13:39:37;6.59;67.58
66594;DHT22;53450;42.584;23.366;2024-03-08T13:42:16;6.50;66.16
66594;DHT22;53450;42.584;23.366;2024-03-08T13:47:22;6.76;68.41
66594;DHT22;53450;42.584;23.366;2024-03-08T13:50:49;6.39;67.82
66594;DHT22;53450;42.584;23.366;2024-03-08T13:56:30;6.24;69.27
66594;DHT22;53450;42.584;23.366;2024-03-08T13:59:20;6.29;67.53
66594;DHT22;53450;42.584;23.366;2024-03-08T14:05:22;6.45;68.34
66594;DHT22;53450;42.584;23.366;2024-03-08T14:08:19;6.45;66.61
66594;DHT22;53450;42.584;23.366;2024-03-08T14:11:00;6.39;67.31
66594;DHT22;53450;42.584;23.366;2024-03-08T14:22:08;6.32;66.94
66594;DHT22;53450;42.584;23.366;2024-03-08T14:25:19;6.49;66.00
66594;DHT22;53450;42.584;23.366;2024-03-08T14:27:53;6.56;66.94
66594;DHT22;53450;42.584;23.366;2024-03-08T14:31:07;6.76;66.26
66594;DHT22;53450;42.584;23.366;2024-03-08T14:33:44;6.66;67.26
66594;DHT22;53450;42.584;23.366;2024-03-08T14:37:01;6.50;66.61
66594;DHT22;53450;42.584;23.366;2024-03-08T14:40:33;6.39;66.09
66594;DHT22;53450;42.584;23.366;2024-03-08T14:43:24;6.28;66.36
66594;DHT22;53450;42.584;23.366;2024-03-08T14:49:51;6.36;66.21
66594;DHT22;53450;42.584;23.366;2024-03-08T14:52:20;6.31;67.56
66594;DHT22;53450;42.584;23.366;2024-03-08T14:55:08;6.15;67.46
66594;DHT22;53450;42.584;23.366;2024-03-08T14:57:43;6.22;67.96
66594;DHT22;53450;42.584;23.366;2024-03-08T15:00:25;6.17;68.35
66594;DHT22;53450;42.584;23.366;2024-03-08T15:06:37;6.24;68.48
66594;DHT22;53450;42.584;23.366;2024-03-08T15:09:16;6.04;68.46
66594;DHT22;53450;42.584;23.366;2024-03-08T15:12:19;5.89;69.82
66594;DHT22;53450;42.584;23.366;2024-03-08T15:15:19;5.89;70.31
66594;DHT22;53450;42.584;23.366;2024-03-08T15:21:48;5.64;70.68
66594;DHT22;53450;42.584;23.366;2024-03-08T15:24:48;5.57;71.49
66594;DHT22;53450;42.584;23.366;2024-03-08T15:28:21;5.50;71.54
66594;DHT22;53450;42.584;23.366;2024-03-08T15:30:52;5.53;72.09
66594;DHT22;53450;42.584;23.366;2024-03-08T15:33:23;5.71;71.69
66594;DHT22;53450;42.584;23.366;2024-03-08T15:35:54;5.67;71.15
66594;DHT22;53450;42.584;23.366;2024-03-08T15:38:38;5.62;71.31
66594;DHT22;53450;42.584;23.366;2024-03-08T15:41:14;5.57;72.36
66594;DHT22;53450;42.584;23.366;2024-03-08T15:43:57;5.67;71.82
66594;DHT22;53450;42.584;23.366;2024-03-08T15:47:05;5.52;71.41
66594;DHT22;53450;42.584;23.366;2024-03-08T15:49:36;5.39;71.46
66594;DHT22;53450;42.584;23.366;2024-03-08T15:52:06;5.43;71.50
66594;DHT22;53450;42.584;23.366;2024-03-08T15:54:39;5.22;71.64
66594;DHT22;53450;42.584;23.366;2024-03-08T15:57:07;5.32;71.56
66594;DHT22;53450;42.584;23.366;2024-03-08T15:59:42;5.13;71.68
66594;DHT22;53450;42.584;23.366;2024-03-08T16:02:08;4.98;72.32
66594;DHT22;53450;42.584;23.366;2024-03-08T16:04:36;5.07;72.95
66594;DHT22;53450;42.584;23.366;2024-03-08T16:07:06;5.05;72.91
66594;DHT22;53450;42.584;23.366;2024-03-08T16:09:37;5.11;72.52
66594;DHT22;53450;42.584;23.366;2024-03-08T16:12:04;4.99;72.61
66594;DHT22;53450;42.584;23.366;2024-03-08T16:14:33;4.96;73.25
66594;DHT22;53450;42.584;23.366;2024-03-08T16:17:07;4.81;73.94
66594;DHT22;53450;42.584;23.366;2024-03-08T16:19:36;4.81;74.40
66594;DHT22;53450;42.584;23.366;2024-03-08T16:22:08;4.75;74.38
66594;DHT22;53450;42.584;23.366;2024-03-08T16:24:45;4.64;75.14
66594;DHT22;53450;42.584;23.366;2024-03-08T16:27:24;4.46;75.90
66594;DHT22;53450;42.584;23.366;2024-03-08T16:30:15;4.37;76.01
66594;DHT22;53450;42.584;23.366;2024-03-08T16:32:58;4.29;76.20
66594;DHT22;53450;42.584;23.366;2024-03-08T16:38:56;4.19;77.00
66594;DHT22;53450;42.584;23.366;2024-03-08T16:41:37;4.09;77.37
66594;DHT22;53450;42.584;23.366;2024-03-08T16:44:04;3.91;78.10
66594;DHT22;53450;42.584;23.366;2024-03-08T16:46:59;3.84;77.89
66594;DHT22;53450;42.584;23.366;2024-03-08T16:50:04;4.05;76.88
66594;DHT22;53450;42.584;23.366;2024-03-08T16:53:08;4.20;75.86
66594;DHT22;53450;42.584;23.366;2024-03-08T16:55:45;4.15;76.75
66594;DHT22;53450;42.584;23.366;2024-03-08T16:58:44;4.13;76.33
66594;DHT22;53450;42.584;23.366;2024-03-08T17:01:22;4.05;77.59
66594;DHT22;53450;42.584;23.366;2024-03-08T17:04:13;4.12;76.79
66594;DHT22;53450;42.584;23.366;2024-03-08T17:06:48;4.28;76.10
66594;DHT22;53450;42.584;23.366;2024-03-08T17:09:14;4.29;75.87
66594;DHT22;53450;42.584;23.366;2024-03-08T17:11:46;4.25;75.94
66594;DHT22;53450;42.584;23.366;2024-03-08T17:14:22;3.94;77.29
66594;DHT22;53450;42.584;23.366;2024-03-08T17:16:53;3.95;77.15
66594;DHT22;53450;42.584;23.366;2024-03-08T17:19:21;4.10;76.22